createdAt,value
2023-04-04T00:01:20.235Z,2.31
2023-04-04T00:03:51.981Z,2.49
2023-04-04T00:06:22.708Z,2.73
2023-04-04T00:08:51.315Z,2.60
2023-04-04T00:11:19.796Z,2.72
2023-04-04T00:13:48.293Z,3.08
2023-04-04T00:16:16.754Z,2.96
2023-04-04T00:18:45.216Z,2.79
2023-04-04T00:21:13.688Z,2.80
2023-04-04T00:23:43.413Z,2.15
2023-04-04T00:26:11.807Z,1.98
2023-04-04T00:28:41.937Z,1.92
2023-04-04T00:31:10.608Z,1.74
2023-04-04T00:33:39.090Z,1.81
2023-04-04T00:36:07.994Z,1.74
2023-04-04T00:38:36.542Z,1.59
2023-04-04T00:41:07.617Z,1.62
2023-04-04T00:43:36.457Z,1.36
2023-04-04T00:46:05.083Z,1.19
2023-04-04T00:48:33.776Z,1.07
2023-04-04T00:51:02.500Z,1.53
2023-04-04T00:53:30.996Z,1.50
2023-04-04T00:55:59.474Z,1.39
2023-04-04T00:58:29.346Z,1.36
2023-04-04T01:00:58.010Z,1.23
2023-04-04T01:03:26.451Z,1.35
2023-04-04T01:05:55.860Z,1.00
2023-04-04T01:08:27.750Z,1.26
2023-04-04T01:10:56.313Z,1.24
2023-04-04T01:13:25.049Z,1.36
2023-04-04T01:15:55.502Z,1.34
2023-04-04T01:18:26.622Z,1.32
2023-04-04T01:21:00.667Z,1.08
2023-04-04T01:23:41.903Z,1.14
2023-04-04T01:26:12.072Z,1.05
2023-04-04T01:28:41.095Z,1.04
2023-04-04T01:31:15.806Z,1.10
2023-04-04T01:33:52.636Z,1.10
2023-04-04T01:36:27.917Z,1.01
2023-04-04T01:39:02.027Z,1.12
2023-04-04T01:41:35.356Z,1.08
2023-04-04T01:44:05.057Z,0.92
2023-04-04T01:46:33.895Z,0.91
2023-04-04T01:49:02.353Z,1.00
2023-04-04T01:51:35.724Z,0.99
2023-04-04T01:54:04.446Z,0.91
2023-04-04T01:56:34.549Z,0.96
2023-04-04T01:59:03.084Z,1.08
2023-04-04T02:01:33.357Z,1.03
2023-04-04T02:04:02.433Z,1.04
2023-04-04T02:06:31.264Z,0.97
2023-04-04T02:08:59.870Z,0.86
2023-04-04T02:11:28.851Z,0.81
2023-04-04T02:13:58.595Z,0.83
2023-04-04T02:16:28.340Z,0.79
2023-04-04T02:18:56.834Z,0.77
2023-04-04T02:21:26.230Z,0.80
2023-04-04T02:23:54.651Z,0.83
2023-04-04T02:26:23.067Z,0.77
2023-04-04T02:28:51.392Z,0.88
2023-04-04T02:31:21.910Z,0.94
2023-04-04T02:33:50.270Z,0.81
2023-04-04T02:36:20.484Z,0.71
2023-04-04T02:38:51.243Z,0.76
2023-04-04T02:41:21.165Z,0.75
2023-04-04T02:43:49.457Z,0.84
2023-04-04T02:46:22.031Z,0.47
2023-04-04T02:48:55.940Z,0.77
2023-04-04T02:51:24.459Z,0.70
2023-04-04T02:53:53.009Z,0.70
2023-04-04T02:56:26.712Z,0.63
2023-04-04T02:58:55.644Z,0.65
2023-04-04T03:01:25.933Z,0.66
2023-04-04T03:03:54.650Z,0.66
2023-04-04T03:06:24.075Z,0.61
2023-04-04T03:08:52.512Z,0.61
2023-04-04T03:11:21.610Z,0.48
2023-04-04T03:13:52.369Z,0.52
2023-04-04T03:16:27.992Z,0.33
2023-04-04T03:18:57.292Z,0.62
2023-04-04T03:21:25.978Z,0.68
2023-04-04T03:23:57.204Z,0.57
2023-04-04T03:26:28.360Z,0.61
2023-04-04T03:28:57.364Z,0.53
2023-04-04T03:31:28.526Z,0.42
2023-04-04T03:33:56.935Z,0.60
2023-04-04T03:36:25.510Z,0.45
2023-04-04T03:38:53.985Z,0.40
2023-04-04T03:41:22.352Z,0.57
2023-04-04T03:43:50.942Z,0.57
2023-04-04T03:46:19.429Z,0.57
2023-04-04T03:48:50.117Z,0.41
2023-04-04T03:51:25.163Z,0.20
2023-04-04T03:53:53.582Z,0.48
2023-04-04T03:56:21.961Z,0.37
2023-04-04T03:58:50.428Z,0.42
2023-04-04T04:01:22.056Z,0.43
2023-04-04T04:03:52.174Z,0.40
2023-04-04T04:06:20.674Z,0.44
2023-04-04T04:08:49.996Z,0.40
2023-04-04T04:11:18.332Z,0.41
2023-04-04T04:13:46.737Z,0.34
2023-04-04T04:16:15.556Z,0.40
2023-04-04T04:18:44.033Z,0.34
2023-04-04T04:21:18.657Z,0.25
2023-04-04T04:23:47.059Z,0.22
2023-04-04T04:26:15.431Z,0.20
2023-04-04T04:28:43.979Z,0.34
2023-04-04T04:31:16.832Z,0.38
2023-04-04T04:33:49.706Z,0.30
2023-04-04T04:36:22.939Z,0.29
2023-04-04T04:39:02.316Z,0.30
2023-04-04T04:41:34.581Z,0.29
2023-04-04T04:44:04.252Z,0.32
2023-04-04T04:46:33.003Z,0.26
2023-04-04T04:49:02.202Z,0.23
2023-04-04T04:51:34.333Z,0.35
2023-04-04T04:54:02.833Z,0.30
2023-04-04T04:56:33.053Z,0.37
2023-04-04T04:59:09.193Z,0.16
2023-04-04T05:01:40.182Z,-0.12
2023-04-04T05:04:08.826Z,0.26
2023-04-04T05:06:45.049Z,0.36
2023-04-04T05:09:14.648Z,0.36
2023-04-04T05:11:43.312Z,0.25
2023-04-04T05:14:13.300Z,0.48
2023-04-04T05:16:49.636Z,0.47
2023-04-04T05:19:19.416Z,0.43
2023-04-04T05:21:54.049Z,0.47
2023-04-04T05:24:40.460Z,0.44
2023-04-04T05:27:09.384Z,0.43
2023-04-04T05:29:43.680Z,0.49
2023-04-04T05:32:12.178Z,0.38
2023-04-04T05:34:43.187Z,0.35
2023-04-04T05:37:18.136Z,0.40
2023-04-04T05:39:50.051Z,0.37
2023-04-04T05:42:19.749Z,0.45
2023-04-04T05:44:52.313Z,0.49
2023-04-04T05:47:22.062Z,0.43
2023-04-04T05:49:51.109Z,0.48
2023-04-04T05:52:22.547Z,0.54
2023-04-04T05:54:52.302Z,0.58
2023-04-04T05:57:28.115Z,0.57
2023-04-04T05:59:58.913Z,0.51
2023-04-04T06:02:29.309Z,0.61
2023-04-04T06:05:02.797Z,0.70
2023-04-04T06:07:38.445Z,0.70
2023-04-04T06:10:08.765Z,0.71
2023-04-04T06:12:37.846Z,0.84
2023-04-04T06:15:11.157Z,0.95
2023-04-04T06:17:41.667Z,0.99
2023-04-04T06:20:12.285Z,1.12
2023-04-04T06:22:43.009Z,0.90
2023-04-04T06:25:11.806Z,1.07
2023-04-04T06:27:41.050Z,1.04
2023-04-04T06:30:12.098Z,1.02
2023-04-04T06:32:41.240Z,0.78
2023-04-04T06:35:13.680Z,1.12
2023-04-04T06:37:47.921Z,1.15
2023-04-04T06:40:20.037Z,1.24
2023-04-04T06:42:50.680Z,1.49
2023-04-04T06:45:20.134Z,1.50
2023-04-04T06:47:49.987Z,1.63
2023-04-04T06:50:18.825Z,2.37
2023-04-04T06:52:51.358Z,2.46
2023-04-04T06:55:20.295Z,2.44
2023-04-04T06:57:48.631Z,1.90
2023-04-04T07:00:17.941Z,2.08
2023-04-04T07:02:46.833Z,2.12
2023-04-04T07:05:18.033Z,2.04
2023-04-04T07:07:47.631Z,2.02
2023-04-04T07:10:17.629Z,2.30
2023-04-04T07:12:46.061Z,2.35
2023-04-04T07:15:14.648Z,2.61
2023-04-04T07:17:43.038Z,2.99
2023-04-04T07:20:12.254Z,3.49
2023-04-04T07:22:40.834Z,4.26
2023-04-04T07:25:10.673Z,4.46
2023-04-04T07:27:41.137Z,5.11
2023-04-04T07:30:11.182Z,5.67
2023-04-04T07:32:39.620Z,6.03
2023-04-04T07:35:09.736Z,6.03
2023-04-04T07:37:38.708Z,5.41
2023-04-04T07:40:09.731Z,5.54
2023-04-04T07:42:46.213Z,5.47
2023-04-04T07:45:14.985Z,5.44
2023-04-04T07:47:46.120Z,6.11
2023-04-04T07:50:15.348Z,6.05
2023-04-04T07:52:44.204Z,5.85
2023-04-04T07:55:13.370Z,5.52
2023-04-04T07:57:44.905Z,6.27
2023-04-04T08:00:14.803Z,6.43
2023-04-04T08:02:45.603Z,6.92
2023-04-04T08:05:14.041Z,6.34
2023-04-04T08:07:42.736Z,7.31
2023-04-04T08:10:11.821Z,7.21
2023-04-04T08:12:40.681Z,7.20
2023-04-04T08:15:12.273Z,6.71
2023-04-04T08:17:40.795Z,7.24
2023-04-04T08:20:09.955Z,7.24
2023-04-04T08:22:38.502Z,7.17
2023-04-04T08:25:07.608Z,6.70
2023-04-04T08:27:36.044Z,6.97
2023-04-04T08:30:05.194Z,7.88
2023-04-04T08:32:34.895Z,8.17
2023-04-04T08:35:03.544Z,8.63
2023-04-04T08:37:32.207Z,8.45
2023-04-04T08:40:00.521Z,8.86
2023-04-04T08:42:29.954Z,8.45
2023-04-04T08:45:03.973Z,8.14
2023-04-04T08:47:36.051Z,8.06
2023-04-04T08:50:07.308Z,7.50
2023-04-04T08:52:36.640Z,7.62
2023-04-04T08:55:08.131Z,7.80
2023-04-04T08:57:37.887Z,8.76
2023-04-04T09:00:08.438Z,9.18
2023-04-04T09:02:48.348Z,7.24
2023-04-04T09:05:17.661Z,8.13
2023-04-04T09:07:46.537Z,9.06
2023-04-04T09:10:14.956Z,9.48
2023-04-04T09:12:47.532Z,10.03
2023-04-04T09:15:17.121Z,10.06
2023-04-04T09:17:46.819Z,9.57
2023-04-04T09:20:41.974Z,9.64
2023-04-04T09:23:13.157Z,8.83
2023-04-04T09:26:02.510Z,8.55
2023-04-04T09:28:33.527Z,8.61
2023-04-04T09:31:05.617Z,8.39
2023-04-04T09:33:36.388Z,8.62
2023-04-04T09:36:10.350Z,8.97
2023-04-04T09:38:43.165Z,8.86
2023-04-04T09:41:11.983Z,9.46
2023-04-04T09:43:41.446Z,9.41
2023-04-04T09:46:10.028Z,9.51
2023-04-04T09:48:39.828Z,8.60
2023-04-04T09:51:13.555Z,9.63
2023-04-04T09:53:42.190Z,10.46
2023-04-04T09:56:10.923Z,10.05
2023-04-04T09:58:46.271Z,10.09
2023-04-04T10:01:19.969Z,9.70
2023-04-04T10:03:55.374Z,9.98
2023-04-04T10:06:25.571Z,9.22
2023-04-04T10:08:54.335Z,9.53
2023-04-04T10:11:32.416Z,8.83
2023-04-04T10:14:02.726Z,8.88
2023-04-04T10:16:34.443Z,9.93
2023-04-04T10:19:07.387Z,9.52
2023-04-04T10:21:36.747Z,9.96
2023-04-04T10:24:09.878Z,11.05
2023-04-04T10:26:38.565Z,9.98
2023-04-04T10:29:06.968Z,9.34
2023-04-04T10:31:41.018Z,9.27
2023-04-04T10:34:16.540Z,9.32
2023-04-04T10:36:50.292Z,9.51
2023-04-04T10:39:27.561Z,9.13
2023-04-04T10:41:57.483Z,8.98
2023-04-04T10:44:31.823Z,9.22
2023-04-04T10:47:05.790Z,9.43
2023-04-04T10:49:36.771Z,10.09
2023-04-04T10:52:05.694Z,9.82
2023-04-04T10:54:34.755Z,8.97
2023-04-04T10:57:04.511Z,8.30
2023-04-04T10:59:32.901Z,9.18
2023-04-04T11:02:03.468Z,9.24
2023-04-04T11:04:42.639Z,9.09
2023-04-04T11:07:17.266Z,9.18
2023-04-04T11:09:56.664Z,9.48
2023-04-04T11:12:34.210Z,9.09
2023-04-04T11:15:11.047Z,9.26
2023-04-04T11:17:57.687Z,9.18
2023-04-04T11:20:34.525Z,9.24
2023-04-04T11:23:11.448Z,9.17
2023-04-04T11:25:42.956Z,9.69
2023-04-04T11:28:26.630Z,8.82
2023-04-04T11:31:27.676Z,9.25
2023-04-04T11:34:01.940Z,9.16
2023-04-04T11:36:56.443Z,9.49
2023-04-04T11:39:29.507Z,9.36
2023-04-04T11:42:03.522Z,9.37
2023-04-04T11:44:34.279Z,9.81
2023-04-04T11:47:10.756Z,9.88
2023-04-04T11:49:41.674Z,9.73
2023-04-04T11:52:14.156Z,9.66
2023-04-04T11:54:44.853Z,9.47
2023-04-04T11:57:14.262Z,9.96
2023-04-04T11:59:44.641Z,9.93
2023-04-04T12:02:14.624Z,10.04
2023-04-04T12:04:44.714Z,9.57
2023-04-04T12:07:15.436Z,9.57
2023-04-04T12:09:44.060Z,9.08
2023-04-04T12:12:16.340Z,9.49
2023-04-04T12:14:45.324Z,9.25
2023-04-04T12:17:14.485Z,9.31
2023-04-04T12:19:44.440Z,9.53
2023-04-04T12:22:14.815Z,9.38
2023-04-04T12:24:43.287Z,9.17
2023-04-04T12:27:11.797Z,9.41
2023-04-04T12:29:40.584Z,9.47
2023-04-04T12:32:10.853Z,8.98
2023-04-04T12:34:48.660Z,9.05
2023-04-04T12:37:23.583Z,9.33
2023-04-04T12:39:52.486Z,9.22
2023-04-04T12:42:26.374Z,9.22
2023-04-04T12:44:55.416Z,8.89
2023-04-04T12:47:26.423Z,8.79
2023-04-04T12:49:56.042Z,8.82
2023-04-04T12:52:32.743Z,8.69
2023-04-04T12:55:09.756Z,9.29
2023-04-04T12:57:40.654Z,9.06
2023-04-04T13:00:10.692Z,8.87
2023-04-04T13:02:40.181Z,8.30
2023-04-04T13:05:11.216Z,8.36
2023-04-04T13:07:44.322Z,8.78
2023-04-04T13:10:16.374Z,8.77
2023-04-04T13:13:00.140Z,8.75
2023-04-04T13:15:59.306Z,8.70
2023-04-04T13:18:33.957Z,8.78
2023-04-04T13:21:02.268Z,9.11
2023-04-04T13:23:32.308Z,8.90
2023-04-04T13:26:00.639Z,8.54
2023-04-04T13:28:29.090Z,8.72
2023-04-04T13:30:57.537Z,8.95
2023-04-04T13:33:25.914Z,8.54
2023-04-04T13:35:54.544Z,8.74
2023-04-04T13:38:23.333Z,8.60
2023-04-04T13:40:54.468Z,8.84
2023-04-04T13:43:22.745Z,8.30
2023-04-04T13:45:53.014Z,8.49
2023-04-04T13:48:21.548Z,8.01
2023-04-04T13:50:51.542Z,8.09
2023-04-04T13:53:20.151Z,8.16
2023-04-04T13:56:02.174Z,8.22
2023-04-04T13:58:38.247Z,8.52
2023-04-04T14:01:07.140Z,8.50
2023-04-04T14:03:36.044Z,8.58
2023-04-04T14:06:10.501Z,8.46
2023-04-04T14:08:40.274Z,8.42
2023-04-04T14:11:08.971Z,8.35
2023-04-04T14:13:38.748Z,8.12
2023-04-04T14:16:09.381Z,8.21
2023-04-04T14:18:37.813Z,8.00
2023-04-04T14:21:07.281Z,8.24
2023-04-04T14:23:35.639Z,7.89
2023-04-04T14:26:04.520Z,8.12
2023-04-04T14:28:33.724Z,7.82
2023-04-04T14:31:03.455Z,8.08
2023-04-04T14:33:31.937Z,8.21
2023-04-04T14:36:00.493Z,8.22
2023-04-04T14:38:33.133Z,8.22
2023-04-04T14:41:02.725Z,8.26
2023-04-04T14:43:31.065Z,8.24
2023-04-04T14:45:59.370Z,8.52
2023-04-04T14:48:29.102Z,8.78
2023-04-04T14:50:57.914Z,8.38
2023-04-04T14:53:26.311Z,8.38
2023-04-04T14:55:54.693Z,8.72
2023-04-04T14:58:23.189Z,8.45
2023-04-04T15:00:52.267Z,8.00
2023-04-04T15:03:20.625Z,8.60
2023-04-04T15:05:50.657Z,8.63
2023-04-04T15:08:18.991Z,8.83
2023-04-04T15:10:47.416Z,8.55
2023-04-04T15:13:15.772Z,8.45
2023-04-04T15:15:44.301Z,8.44
2023-04-04T15:18:12.609Z,8.05
2023-04-04T15:20:41.068Z,8.36
2023-04-04T15:23:10.849Z,8.12
2023-04-04T15:25:39.237Z,8.18
2023-04-04T15:28:07.578Z,8.26
2023-04-04T15:30:35.916Z,8.49
2023-04-04T15:33:04.436Z,8.37
2023-04-04T15:35:32.895Z,8.58
2023-04-04T15:38:01.273Z,8.55
2023-04-04T15:40:31.056Z,8.41
2023-04-04T15:42:59.657Z,8.27
2023-04-04T15:45:28.316Z,8.26
2023-04-04T15:47:56.747Z,8.39
2023-04-04T15:50:25.263Z,8.45
2023-04-04T15:52:53.636Z,8.40
2023-04-04T15:55:22.247Z,8.24
2023-04-04T15:57:52.014Z,8.28
2023-04-04T16:00:20.883Z,8.47
2023-04-04T16:02:49.268Z,8.59
2023-04-04T16:05:17.789Z,8.40
2023-04-04T16:07:46.258Z,8.27
2023-04-04T16:10:14.653Z,8.45
2023-04-04T16:12:43.100Z,8.51
2023-04-04T16:15:13.478Z,8.35
2023-04-04T16:17:41.784Z,8.12
2023-04-04T16:20:13.021Z,8.07
2023-04-04T16:22:41.491Z,8.26
2023-04-04T16:25:10.720Z,8.48
2023-04-04T16:27:39.048Z,8.14
2023-04-04T16:30:09.146Z,7.98
2023-04-04T16:32:39.011Z,8.27
2023-04-04T16:35:09.291Z,8.39
2023-04-04T16:37:37.606Z,8.29
2023-04-04T16:40:06.945Z,8.00
2023-04-04T16:42:35.339Z,7.88
2023-04-04T16:45:03.818Z,8.11
2023-04-04T16:47:32.274Z,7.86
2023-04-04T16:50:02.047Z,7.89
2023-04-04T16:52:30.513Z,8.04
2023-04-04T16:54:59.007Z,7.97
2023-04-04T16:57:28.377Z,8.08
2023-04-04T16:59:57.263Z,8.06
2023-04-04T17:02:25.624Z,7.92
2023-04-04T17:04:54.284Z,7.75
2023-04-04T17:07:24.294Z,7.90
2023-04-04T17:09:52.808Z,7.74
2023-04-04T17:12:21.619Z,7.64
2023-04-04T17:14:50.026Z,7.78
2023-04-04T17:17:18.420Z,7.69
2023-04-04T17:19:46.773Z,7.69
2023-04-04T17:22:16.076Z,7.49
2023-04-04T17:24:46.064Z,7.43
2023-04-04T17:27:14.486Z,7.38
2023-04-04T17:29:43.031Z,7.11
2023-04-04T17:32:11.893Z,7.02
2023-04-04T17:34:40.505Z,7.19
2023-04-04T17:37:11.132Z,7.12
2023-04-04T17:39:39.799Z,7.12
2023-04-04T17:42:09.628Z,7.05
2023-04-04T17:44:38.141Z,7.08
2023-04-04T17:47:06.809Z,7.02
2023-04-04T17:49:35.881Z,6.88
2023-04-04T17:52:04.825Z,6.87
2023-04-04T17:54:33.497Z,6.86
2023-04-04T17:57:03.370Z,7.20
2023-04-04T17:59:33.176Z,7.41
2023-04-04T18:02:01.747Z,7.44
2023-04-04T18:04:30.232Z,7.24
2023-04-04T18:06:59.276Z,7.39
2023-04-04T18:09:29.014Z,7.68
2023-04-04T18:11:57.985Z,7.51
2023-04-04T18:14:26.513Z,7.29
2023-04-04T18:16:56.567Z,7.03
2023-04-04T18:19:25.056Z,6.99
2023-04-04T18:21:59.685Z,6.88
2023-04-04T18:24:28.301Z,7.06
2023-04-04T18:26:56.890Z,6.93
2023-04-04T18:29:26.849Z,6.98
2023-04-04T18:31:56.660Z,7.07
2023-04-04T18:34:25.038Z,7.20
2023-04-04T18:36:53.446Z,6.75
2023-04-04T18:39:21.811Z,6.62
2023-04-04T18:41:51.408Z,6.82
2023-04-04T18:44:19.954Z,6.41
2023-04-04T18:46:48.443Z,6.15
2023-04-04T18:49:18.298Z,6.18
2023-04-04T18:51:48.419Z,6.06
2023-04-04T18:54:17.051Z,6.12
2023-04-04T18:56:45.618Z,6.05
2023-04-04T18:59:14.989Z,5.92
2023-04-04T19:01:43.429Z,5.80
2023-04-04T19:04:12.622Z,5.77
2023-04-04T19:06:43.660Z,5.64
2023-04-04T19:09:13.141Z,5.63
2023-04-04T19:11:43.764Z,5.57
2023-04-04T19:14:12.145Z,5.50
2023-04-04T19:16:41.371Z,5.45
2023-04-04T19:19:09.814Z,5.65
2023-04-04T19:21:38.199Z,5.54
2023-04-04T19:24:08.899Z,5.62
2023-04-04T19:26:37.304Z,5.51
2023-04-04T19:29:06.269Z,5.55
2023-04-04T19:31:34.682Z,5.45
2023-04-04T19:34:03.833Z,5.40
2023-04-04T19:36:37.734Z,5.36
2023-04-04T19:39:10.569Z,5.44
2023-04-04T19:41:40.201Z,5.42
2023-04-04T19:44:19.339Z,5.43
2023-04-04T19:46:48.434Z,5.01
2023-04-04T19:49:17.966Z,5.30
2023-04-04T19:51:54.076Z,5.23
2023-04-04T19:54:39.016Z,5.26
2023-04-04T19:57:16.800Z,5.20
2023-04-04T20:00:13.714Z,5.08
2023-04-04T20:02:57.894Z,5.00
2023-04-04T20:06:06.631Z,5.12
2023-04-04T20:08:43.947Z,5.04
2023-04-04T20:11:14.565Z,5.01
2023-04-04T20:13:43.144Z,5.02
2023-04-04T20:16:14.081Z,5.00
2023-04-04T20:18:45.266Z,4.96
2023-04-04T20:21:16.405Z,4.85
2023-04-04T20:23:49.412Z,4.84
2023-04-04T20:26:54.996Z,4.76
2023-04-04T20:29:27.213Z,4.70
2023-04-04T20:31:58.052Z,4.80
2023-04-04T20:34:44.654Z,4.72
2023-04-04T20:37:16.246Z,4.65
2023-04-04T20:39:50.558Z,4.47
2023-04-04T20:42:34.192Z,4.48
2023-04-04T20:45:34.865Z,4.49
2023-04-04T20:48:06.664Z,4.33
2023-04-04T20:50:46.364Z,4.51
2023-04-04T20:53:24.443Z,4.38
2023-04-04T20:55:53.954Z,4.48
2023-04-04T20:58:30.009Z,4.57
2023-04-04T21:01:00.888Z,4.54
2023-04-04T21:03:34.730Z,4.49
2023-04-04T21:06:12.679Z,4.50
2023-04-04T21:08:46.473Z,4.55
2023-04-04T21:11:25.340Z,4.57
2023-04-04T21:13:56.065Z,4.29
2023-04-04T21:16:29.480Z,4.44
2023-04-04T21:19:01.039Z,4.44
2023-04-04T21:21:30.110Z,4.49
2023-04-04T21:24:00.367Z,4.51
2023-04-04T21:26:34.495Z,4.47
2023-04-04T21:29:06.948Z,4.42
2023-04-04T21:31:38.568Z,4.53
2023-04-04T21:34:13.244Z,4.51
2023-04-04T21:36:42.661Z,4.34
2023-04-04T21:39:16.053Z,4.35
2023-04-04T21:41:46.017Z,4.52
2023-04-04T21:44:15.870Z,4.41
2023-04-04T21:46:44.395Z,4.41
2023-04-04T21:49:13.262Z,4.28
2023-04-04T21:51:41.772Z,4.31
2023-04-04T21:54:10.420Z,4.23
2023-04-04T21:56:39.212Z,4.39
2023-04-04T21:59:10.232Z,4.42
2023-04-04T22:01:40.952Z,4.43
2023-04-04T22:04:09.546Z,4.34
2023-04-04T22:06:37.981Z,3.95
2023-04-04T22:09:06.648Z,4.26
2023-04-04T22:11:38.956Z,4.31
2023-04-04T22:14:08.079Z,4.36
2023-04-04T22:16:39.738Z,4.33
2023-04-04T22:19:11.381Z,4.28
2023-04-04T22:21:48.226Z,4.27
2023-04-04T22:24:17.948Z,4.10
2023-04-04T22:26:47.423Z,4.00
2023-04-04T22:29:16.163Z,4.08
2023-04-04T22:31:44.743Z,4.05
2023-04-04T22:34:15.575Z,4.11
2023-04-04T22:36:44.867Z,4.20
2023-04-04T22:39:16.189Z,4.19
2023-04-04T22:41:45.605Z,4.10
2023-04-04T22:44:14.217Z,4.13
2023-04-04T22:46:43.027Z,4.20
2023-04-04T22:49:13.360Z,4.11
2023-04-04T22:51:46.277Z,4.13
2023-04-04T22:54:17.294Z,4.18
2023-04-04T22:56:46.104Z,4.13
2023-04-04T22:59:14.725Z,4.04
2023-04-04T23:01:43.632Z,4.04
2023-04-04T23:04:12.360Z,3.90
2023-04-04T23:06:46.354Z,3.93
2023-04-04T23:09:14.819Z,3.89
2023-04-04T23:11:43.252Z,3.30
2023-04-04T23:14:14.842Z,3.62
2023-04-04T23:16:43.620Z,3.69
2023-04-04T23:19:12.345Z,3.64
2023-04-04T23:21:40.819Z,3.37
2023-04-04T23:24:10.641Z,3.34
2023-04-04T23:26:39.105Z,3.40
2023-04-04T23:29:07.508Z,3.47
2023-04-04T23:31:36.509Z,3.51
2023-04-04T23:34:04.996Z,3.45
2023-04-04T23:36:33.652Z,3.35
2023-04-04T23:39:02.094Z,3.50
2023-04-04T23:41:32.354Z,3.40
2023-04-04T23:44:01.063Z,3.47
2023-04-04T23:46:30.564Z,3.45
2023-04-04T23:48:59.052Z,3.45
2023-04-04T23:51:30.438Z,3.45
2023-04-04T23:53:58.818Z,3.45
2023-04-04T23:56:27.213Z,3.16
2023-04-04T23:58:57.091Z,3.41
